Time;durP1;ratioP1;P1;durP2;ratioP2;P2;SDS_P1;SDS_P2;PMS_P1;PMS_P2;Temp;Humidity;BMP_temperature;BMP_pressure;BME280_temperature;BME280_humidity;BME280_pressure;Samples;Min_cycle;Max_cycle;Signal;HPM_P1;HPM_P2
2021/06/01 00:00:21;;;;;;;41.35;20.33;;;;;;;;;;4922930;29;20052;-58
2021/06/01 00:02:48;;;;;;;38.50;21.30;;;;;;;;;;4927491;29;20196;-58
2021/06/01 00:05:15;;;;;;;47.95;21.25;;;;;;;;;;4922027;29;20048;-58
2021/06/01 00:07:42;;;;;;;39.40;19.25;;;;;;;;;;4925141;29;20048;-58
2021/06/01 00:10:10;;;;;;;38.80;19.98;;;;;;;;;;4925557;29;20495;-57
2021/06/01 00:12:36;;;;;;;43.08;21.98;;;;;;;;;;4920546;29;20040;-57
2021/06/01 00:15:05;;;;;;;44.08;20.85;;;;;;;;;;4921365;29;20102;-57
2021/06/01 00:17:31;;;;;;;38.72;21.27;;;;;;;;;;4925414;29;20032;-58
2021/06/01 00:19:58;;;;;;;41.45;21.15;;;;;;;;;;4926463;29;20079;-57
2021/06/01 00:22:25;;;;;;;47.33;21.10;;;;;;;;;;4921651;29;20091;-57
2021/06/01 00:24:52;;;;;;;45.13;22.15;;;;;;;;;;4925237;29;20328;-53
2021/06/01 00:27:19;;;;;;;46.25;21.65;;;;;;;;;;4929630;29;20040;-57
2021/06/01 00:29:46;;;;;;;41.78;22.20;;;;;;;;;;4924191;29;20074;-57
2021/06/01 00:32:13;;;;;;;49.67;22.20;;;;;;;;;;4919512;29;20036;-57
2021/06/01 00:34:40;;;;;;;43.47;21.90;;;;;;;;;;4911297;29;20048;-56
2021/06/01 00:37:07;;;;;;;43.47;22.23;;;;;;;;;;4924485;29;20036;-55
2021/06/01 00:39:34;;;;;;;37.03;22.35;;;;;;;;;;4925219;29;20504;-56
2021/06/01 00:42:01;;;;;;;45.72;23.08;;;;;;;;;;4922005;29;20047;-55
2021/06/01 00:44:27;;;;;;;45.28;23.67;;;;;;;;;;4917613;29;20499;-56
2021/06/01 00:46:54;;;;;;;51.05;24.15;;;;;;;;;;4925984;29;20039;-58
2021/06/01 00:49:21;;;;;;;54.85;23.67;;;;;;;;;;4925082;29;20107;-58
2021/06/01 00:51:48;;;;;;;40.67;23.98;;;;;;;;;;4922963;29;20040;-57
2021/06/01 00:54:14;;;;;;;50.33;23.08;;;;;;;;;;4922492;29;20508;-58
2021/06/01 00:56:44;;;;;;;52.10;23.38;;;;;;;;;;4928193;29;20508;-56
2021/06/01 00:59:11;;;;;;;;;;;;;;;;;;4923922;29;20047;-57
2021/06/01 01:01:38;;;;;;;50.83;23.75;;;;;;;;;;4920855;29;19945;-57
2021/06/01 01:04:07;;;;;;;39.97;22.45;;;;;;;;;;4921640;29;20039;-56
2021/06/01 01:06:48;;;;;;;46.10;24.38;;;;;;;;;;4920101;29;20420;-58
2021/06/01 01:09:14;;;;;;;;;;;;;;;;;;4925124;29;20043;-58
2021/06/01 01:11:50;;;;;;;35.50;20.25;;;;;;;;;;4923532;29;20390;-57
2021/06/01 01:14:34;;;;;;;40.95;22.00;;;;;;;;;;4921510;29;20567;-56
2021/06/01 01:17:03;;;;;;;40.85;19.73;;;;;;;;;;4924899;29;20532;-57
2021/06/01 01:19:49;;;;;;;44.83;22.13;;;;;;;;;;4922670;29;20058;-56
2021/06/01 01:22:17;;;;;;;44.58;22.35;;;;;;;;;;4910659;29;20048;-55
2021/06/01 01:24:49;;;;;;;48.83;22.65;;;;;;;;;;4923361;29;20055;-54
2021/06/01 01:27:22;;;;;;;40.67;21.40;;;;;;;;;;4923242;29;20104;-57
2021/06/01 01:29:50;;;;;;;42.13;21.98;;;;;;;;;;4922990;29;20056;-57
2021/06/01 01:32:20;;;;;;;45.63;23.60;;;;;;;;;;4925613;29;20047;-57
2021/06/01 01:34:48;;;;;;;45.75;22.23;;;;;;;;;;4924055;29;20052;-56
2021/06/01 01:37:16;;;;;;;47.58;24.13;;;;;;;;;;4928994;29;20040;-57
2021/06/01 01:39:47;;;;;;;47.03;23.42;;;;;;;;;;4931924;29;20044;-55
2021/06/01 01:42:16;;;;;;;45.63;23.73;;;;;;;;;;4925518;29;20047;-57
2021/06/01 01:44:53;;;;;;;45.08;23.58;;;;;;;;;;4928932;29;20044;-57
2021/06/01 01:50:12;;;;;;;40.88;22.08;;;;;;;;;;4883341;29;20051;-57
2021/06/01 01:52:39;;;;;;;45.97;23.98;;;;;;;;;;4922987;29;20509;-56
2021/06/01 01:55:06;;;;;;;;;;;;;;;;;;4926550;29;20461;-56
2021/06/01 01:57:33;;;;;;;44.63;23.88;;;;;;;;;;4927572;29;19923;-57
2021/06/01 02:00:02;;;;;;;40.97;22.95;;;;;;;;;;4923040;29;20044;-55
2021/06/01 02:02:30;;;;;;;43.05;22.58;;;;;;;;;;4929488;29;20670;-54
2021/06/01 02:04:57;;;;;;;43.60;23.50;;;;;;;;;;4925024;29;20048;-57
2021/06/01 02:07:23;;;;;;;43.80;23.23;;;;;;;;;;4924470;29;20044;-57
2021/06/01 02:09:50;;;;;;;44.92;22.92;;;;;;;;;;4930022;29;20051;-57
2021/06/01 02:12:17;;;;;;;41.33;23.67;;;;;;;;;;4926501;29;20055;-56
2021/06/01 02:14:43;;;;;;;43.78;23.83;;;;;;;;;;4926060;29;20075;-57
2021/06/01 02:17:10;;;;;;;46.10;23.70;;;;;;;;;;4923604;29;20083;-58
2021/06/01 02:19:37;;;;;;;41.60;22.13;;;;;;;;;;4929470;29;20058;-57
2021/06/01 02:22:27;;;;;;;39.97;22.63;;;;;;;;;;4925828;29;20536;-56
2021/06/01 02:25:01;;;;;;;39.90;22.73;;;;;;;;;;4924023;29;20047;-56
2021/06/01 02:27:31;;;;;;;46.08;22.17;;;;;;;;;;4928756;29;20099;-56
2021/06/01 02:30:04;;;;;;;42.83;22.00;;;;;;;;;;4925555;29;20071;-55
2021/06/01 02:32:35;;;;;;;37.33;21.92;;;;;;;;;;4923189;29;20386;-57
2021/06/01 02:35:22;;;;;;;47.92;23.80;;;;;;;;;;4924901;29;20055;-53
2021/06/01 02:37:50;;;;;;;50.78;24.70;;;;;;;;;;4911888;29;20052;-57
2021/06/01 02:40:18;;;;;;;39.95;22.98;;;;;;;;;;4926794;29;20043;-56
2021/06/01 02:42:45;;;;;;;38.03;22.00;;;;;;;;;;4925244;29;20516;-55
2021/06/01 02:45:14;;;;;;;34.05;19.45;;;;;;;;;;4927595;29;20044;-55
2021/06/01 02:47:41;;;;;;;46.72;23.85;;;;;;;;;;4909991;29;20082;-56
2021/06/01 02:50:12;;;;;;;37.73;23.67;;;;;;;;;;4927116;29;20055;-57
2021/06/01 02:52:40;;;;;;;50.55;23.50;;;;;;;;;;4927914;29;20055;-54
2021/06/01 02:55:07;;;;;;;45.55;24.95;;;;;;;;;;4928810;29;20094;-57
2021/06/01 02:57:36;;;;;;;48.17;25.10;;;;;;;;;;4920956;29;20048;-56
2021/06/01 03:00:03;;;;;;;44.13;23.55;;;;;;;;;;4927806;29;20436;-56
2021/06/01 03:02:31;;;;;;;46.00;24.90;;;;;;;;;;4929490;29;20063;-56
2021/06/01 03:04:58;;;;;;;;;;;;;;;;;;4929535;29;20042;-55
2021/06/01 03:07:24;;;;;;;38.15;21.80;;;;;;;;;;4924224;29;20292;-58
2021/06/01 03:09:51;;;;;;;50.17;23.10;;;;;;;;;;4907726;29;20095;-54
2021/06/01 03:12:42;;;;;;;39.60;23.52;;;;;;;;;;4919817;29;20780;-55
2021/06/01 03:15:10;;;;;;;50.03;23.98;;;;;;;;;;4924391;29;20527;-56
2021/06/01 03:17:37;;;;;;;44.50;24.00;;;;;;;;;;4926812;29;20046;-56
2021/06/01 03:20:04;;;;;;;47.65;24.17;;;;;;;;;;4921840;29;20135;-57
2021/06/01 03:22:32;;;;;;;39.88;23.13;;;;;;;;;;4930033;29;20127;-56
2021/06/01 03:24:59;;;;;;;38.25;23.00;;;;;;;;;;4925491;29;20051;-56
2021/06/01 03:27:27;;;;;;;39.30;22.38;;;;;;;;;;4925120;29;20106;-57
2021/06/01 03:29:54;;;;;;;47.40;23.95;;;;;;;;;;4929943;29;20052;-57
2021/06/01 03:32:20;;;;;;;45.45;22.70;;;;;;;;;;4928046;29;20044;-55
2021/06/01 03:34:47;;;;;;;40.33;24.48;;;;;;;;;;4924192;29;20051;-56
2021/06/01 03:37:14;;;;;;;44.42;23.15;;;;;;;;;;4923427;29;20032;-54
2021/06/01 03:39:41;;;;;;;42.63;24.23;;;;;;;;;;4922212;29;20075;-55
2021/06/01 03:42:11;;;;;;;40.50;23.98;;;;;;;;;;4920641;29;20080;-55
2021/06/01 03:44:39;;;;;;;43.55;22.58;;;;;;;;;;4929250;29;20067;-55
2021/06/01 03:47:06;;;;;;;47.53;23.23;;;;;;;;;;4924649;29;20050;-52
2021/06/01 03:49:35;;;;;;;39.70;22.40;;;;;;;;;;4926008;29;20048;-58
2021/06/01 03:52:07;;;;;;;45.45;23.27;;;;;;;;;;4922779;29;20040;-55
2021/06/01 03:54:37;;;;;;;49.13;22.33;;;;;;;;;;4922499;29;20086;-56
2021/06/01 03:57:05;;;;;;;45.70;23.52;;;;;;;;;;4927632;29;20039;-56
2021/06/01 03:59:32;;;;;;;42.97;22.35;;;;;;;;;;4924786;29;20475;-53
2021/06/01 04:01:58;;;;;;;43.80;23.33;;;;;;;;;;4923572;29;20047;-57
2021/06/01 04:04:26;;;;;;;39.70;24.30;;;;;;;;;;4925001;29;20071;-56
2021/06/01 04:06:52;;;;;;;45.25;22.67;;;;;;;;;;4924147;29;20051;-57
2021/06/01 04:09:19;;;;;;;36.38;21.75;;;;;;;;;;4930956;29;20044;-56
2021/06/01 04:11:46;;;;;;;37.42;22.40;;;;;;;;;;4928660;29;20512;-57
2021/06/01 04:14:16;;;;;;;35.85;21.20;;;;;;;;;;4929008;29;20060;-54
2021/06/01 04:16:42;;;;;;;39.92;22.25;;;;;;;;;;4922867;29;20036;-57
2021/06/01 04:19:09;;;;;;;40.35;22.05;;;;;;;;;;4918183;29;20059;-55
2021/06/01 04:21:36;;;;;;;47.05;23.45;;;;;;;;;;4923544;29;20534;-56
2021/06/01 04:24:03;;;;;;;42.15;21.95;;;;;;;;;;4925426;29;20044;-58
2021/06/01 04:26:31;;;;;;;37.33;22.17;;;;;;;;;;4921791;29;20524;-57
2021/06/01 04:28:57;;;;;;;46.95;22.52;;;;;;;;;;4921772;29;20046;-58
2021/06/01 04:31:24;;;;;;;40.35;23.25;;;;;;;;;;4921140;29;20539;-58
2021/06/01 04:33:54;;;;;;;43.50;23.73;;;;;;;;;;4924625;29;20075;-56
2021/06/01 04:36:21;;;;;;;50.17;24.35;;;;;;;;;;4927362;29;20062;-51
2021/06/01 04:38:48;;;;;;;40.05;21.83;;;;;;;;;;4920138;29;20044;-55
2021/06/01 04:41:16;;;;;;;39.00;23.42;;;;;;;;;;4924342;29;20525;-56
2021/06/01 04:43:42;;;;;;;43.88;21.98;;;;;;;;;;4914777;29;20082;-57
2021/06/01 04:46:09;;;;;;;36.00;22.13;;;;;;;;;;4928952;29;20059;-55
2021/06/01 04:48:36;;;;;;;38.78;21.73;;;;;;;;;;4924315;29;20674;-54
2021/06/01 04:51:03;;;;;;;35.47;21.20;;;;;;;;;;4924080;29;20418;-57
2021/06/01 04:53:29;;;;;;;31.10;20.63;;;;;;;;;;4928193;29;20086;-51
2021/06/01 04:55:57;;;;;;;31.77;21.88;;;;;;;;;;4923083;29;20048;-56
2021/06/01 04:58:23;;;;;;;40.42;22.25;;;;;;;;;;4926148;29;20044;-57
2021/06/01 05:00:50;;;;;;;37.65;21.23;;;;;;;;;;4927556;29;20084;-55
2021/06/01 05:03:17;;;;;;;34.10;20.45;;;;;;;;;;4925461;29;20492;-55
2021/06/01 05:05:43;;;;;;;38.28;20.92;;;;;;;;;;4923220;29;20333;-55
2021/06/01 05:08:10;;;;;;;36.53;21.48;;;;;;;;;;4924477;29;20055;-55
2021/06/01 05:10:37;;;;;;;34.97;20.58;;;;;;;;;;4924008;29;20127;-56
2021/06/01 05:13:03;;;;;;;35.53;21.02;;;;;;;;;;4915146;29;20052;-55
2021/06/01 05:15:30;;;;;;;33.83;20.77;;;;;;;;;;4932337;29;20054;-57
2021/06/01 05:17:58;;;;;;;44.45;21.77;;;;;;;;;;4922224;29;20071;-58
2021/06/01 05:20:25;;;;;;;39.90;20.88;;;;;;;;;;4929178;29;20063;-59
2021/06/01 05:22:51;;;;;;;35.33;20.67;;;;;;;;;;4929910;29;20067;-55
2021/06/01 05:25:18;;;;;;;32.77;19.87;;;;;;;;;;4930029;29;20050;-56
2021/06/01 05:27:45;;;;;;;36.28;20.45;;;;;;;;;;4925257;29;20079;-57
2021/06/01 05:30:16;;;;;;;37.13;19.42;;;;;;;;;;4930438;29;20059;-54
2021/06/01 05:35:45;;;;;;;34.90;19.02;;;;;;;;;;4938547;29;20044;-57
2021/06/01 05:38:05;;;;;;;33.08;20.40;;;;;;;;;;4920204;29;20048;-57
2021/06/01 05:40:32;;;;;;;34.05;19.73;;;;;;;;;;4930863;29;20122;-57
2021/06/01 05:42:58;;;;;;;32.87;18.83;;;;;;;;;;4926255;29;20040;-58
2021/06/01 05:45:26;;;;;;;32.80;18.50;;;;;;;;;;4925731;29;20299;-57
2021/06/01 05:47:52;;;;;;;35.65;19.63;;;;;;;;;;4928980;29;20043;-56
2021/06/01 05:50:19;;;;;;;30.67;17.67;;;;;;;;;;4924495;29;20043;-57
2021/06/01 05:52:46;;;;;;;24.20;16.05;;;;;;;;;;4928344;29;20044;-57
2021/06/01 05:55:14;;;;;;;30.58;17.38;;;;;;;;;;4932419;29;20039;-57
2021/06/01 05:57:40;;;;;;;30.70;16.90;;;;;;;;;;4923502;29;20048;-57
2021/06/01 06:00:08;;;;;;;32.08;17.05;;;;;;;;;;4929751;29;20137;-57
2021/06/01 06:02:35;;;;;;;;;;;;;;;;;;4930387;29;20082;-56
2021/06/01 06:05:01;;;;;;;26.98;15.32;;;;;;;;;;4929459;29;19929;-57
2021/06/01 06:07:29;;;;;;;;;;;;;;;;;;4927139;29;20063;-57
2021/06/01 06:09:55;;;;;;;26.65;15.65;;;;;;;;;;4929264;29;19949;-57
2021/06/01 06:12:22;;;;;;;24.95;15.30;;;;;;;;;;4929836;29;20071;-57
2021/06/01 06:14:49;;;;;;;23.80;15.30;;;;;;;;;;4932690;29;20033;-58
2021/06/01 06:17:39;;;;;;;24.03;13.87;;;;;;;;;;4927209;29;20783;-56
2021/06/01 06:20:07;;;;;;;26.75;14.38;;;;;;;;;;4920431;29;20324;-58
2021/06/01 06:22:36;;;;;;;19.90;12.38;;;;;;;;;;4916095;29;20044;-56
2021/06/01 06:25:06;;;;;;;20.10;12.38;;;;;;;;;;4920790;29;20051;-58
2021/06/01 06:27:34;;;;;;;23.90;13.40;;;;;;;;;;4926208;29;20040;-59
2021/06/01 06:30:01;;;;;;;19.77;12.68;;;;;;;;;;4926667;29;20515;-55
2021/06/01 06:32:27;;;;;;;22.25;12.00;;;;;;;;;;4922279;29;20051;-58
2021/06/01 06:34:54;;;;;;;20.57;12.57;;;;;;;;;;4928351;29;20066;-56
2021/06/01 06:37:21;;;;;;;17.42;11.10;;;;;;;;;;4928132;29;20052;-57
2021/06/01 06:39:49;;;;;;;18.65;11.45;;;;;;;;;;4931007;29;20511;-56
2021/06/01 06:42:17;;;;;;;20.67;11.50;;;;;;;;;;4926067;29;20479;-58
2021/06/01 06:44:51;;;;;;;16.38;11.05;;;;;;;;;;4926338;29;20959;-57
2021/06/01 06:50:16;;;;;;;16.27;10.30;;;;;;;;;;4928404;29;20550;-56
2021/06/01 06:52:43;;;;;;;17.05;10.73;;;;;;;;;;4931770;29;20050;-55
2021/06/01 06:55:11;;;;;;;15.40;9.80;;;;;;;;;;4926618;29;20118;-59
2021/06/01 06:57:39;;;;;;;21.15;10.07;;;;;;;;;;4926567;29;20048;-56
2021/06/01 07:00:07;;;;;;;15.35;9.63;;;;;;;;;;4924194;29;20082;-56
2021/06/01 07:02:34;;;;;;;12.63;9.27;;;;;;;;;;4927177;29;20058;-58
2021/06/01 07:05:01;;;;;;;17.92;9.70;;;;;;;;;;4923853;29;20052;-58
2021/06/01 07:07:28;;;;;;;24.30;9.38;;;;;;;;;;4922908;29;20047;-57
2021/06/01 07:09:54;;;;;;;14.70;9.30;;;;;;;;;;4924610;29;20044;-56
2021/06/01 07:12:21;;;;;;;12.23;8.43;;;;;;;;;;4924021;29;20059;-56
2021/06/01 07:14:51;;;;;;;13.17;8.20;;;;;;;;;;4926690;29;20046;-56
2021/06/01 07:17:17;;;;;;;11.88;8.25;;;;;;;;;;4930557;29;20083;-58
2021/06/01 07:19:47;;;;;;;12.35;7.95;;;;;;;;;;4920985;29;20039;-56
2021/06/01 07:22:14;;;;;;;15.32;8.65;;;;;;;;;;4925902;29;20048;-58
2021/06/01 07:24:40;;;;;;;12.05;7.55;;;;;;;;;;4918511;29;20142;-58
2021/06/01 07:27:07;;;;;;;10.30;6.87;;;;;;;;;;4927676;29;20051;-59
2021/06/01 07:29:34;;;;;;;12.55;7.20;;;;;;;;;;4927131;29;20496;-57
2021/06/01 07:32:01;;;;;;;16.80;7.10;;;;;;;;;;4927152;29;20134;-58
2021/06/01 07:34:28;;;;;;;9.23;6.60;;;;;;;;;;4922507;29;20292;-57
2021/06/01 07:36:54;;;;;;;11.50;6.28;;;;;;;;;;4924958;29;20051;-58
2021/06/01 07:39:21;;;;;;;10.05;5.90;;;;;;;;;;4923940;29;20070;-57
2021/06/01 07:41:48;;;;;;;8.60;5.43;;;;;;;;;;4927264;29;20083;-56
2021/06/01 07:44:15;;;;;;;6.10;4.50;;;;;;;;;;4923063;29;20040;-59
2021/06/01 07:46:42;;;;;;;7.90;5.03;;;;;;;;;;4924816;29;20048;-58
2021/06/01 07:49:10;;;;;;;11.02;5.05;;;;;;;;;;4925598;29;20279;-58
2021/06/01 07:51:37;;;;;;;8.18;4.80;;;;;;;;;;4923302;29;20107;-59
2021/06/01 07:54:06;;;;;;;9.05;4.60;;;;;;;;;;4921146;29;20087;-57
2021/06/01 07:56:33;;;;;;;12.60;4.80;;;;;;;;;;4925742;29;20054;-58
2021/06/01 07:59:01;;;;;;;;;;;;;;;;;;4923882;29;20076;-59
2021/06/01 08:01:28;;;;;;;5.35;3.63;;;;;;;;;;4920497;29;19966;-58
2021/06/01 08:03:55;;;;;;;6.25;3.72;;;;;;;;;;4924667;29;20407;-58
2021/06/01 08:06:24;;;;;;;7.57;4.00;;;;;;;;;;4925226;29;20063;-58
2021/06/01 08:08:51;;;;;;;6.88;3.78;;;;;;;;;;4927545;29;20044;-58
2021/06/01 08:11:18;;;;;;;4.75;3.42;;;;;;;;;;4923594;29;20107;-58
2021/06/01 08:13:45;;;;;;;5.18;3.40;;;;;;;;;;4928217;29;20044;-58
2021/06/01 08:16:12;;;;;;;7.65;3.70;;;;;;;;;;4922664;29;20054;-58
2021/06/01 08:18:43;;;;;;;7.13;3.13;;;;;;;;;;4926130;29;20044;-58
2021/06/01 08:21:13;;;;;;;6.35;3.30;;;;;;;;;;4928963;29;20111;-56
2021/06/01 08:23:40;;;;;;;4.05;2.88;;;;;;;;;;4928173;29;20280;-59
2021/06/01 08:26:07;;;;;;;4.93;2.80;;;;;;;;;;4920868;29;20139;-58
2021/06/01 08:28:34;;;;;;;4.47;3.03;;;;;;;;;;4929802;29;20040;-56
2021/06/01 08:31:01;;;;;;;3.10;2.63;;;;;;;;;;4923035;29;20131;-57
2021/06/01 08:33:28;;;;;;;4.15;2.42;;;;;;;;;;4926214;29;20485;-58
2021/06/01 08:35:57;;;;;;;4.10;2.43;;;;;;;;;;4926876;29;20146;-58
2021/06/01 08:38:23;;;;;;;4.47;2.60;;;;;;;;;;4919486;29;20292;-58
2021/06/01 08:40:53;;;;;;;4.05;2.67;;;;;;;;;;4925904;29;20059;-58
2021/06/01 08:43:22;;;;;;;3.55;2.60;;;;;;;;;;4928976;29;20043;-58
2021/06/01 08:45:49;;;;;;;3.30;2.78;;;;;;;;;;4919402;29;20036;-57
2021/06/01 08:48:17;;;;;;;5.60;3.20;;;;;;;;;;4922281;29;20059;-58
2021/06/01 08:50:49;;;;;;;5.47;2.90;;;;;;;;;;4921558;29;20052;-58
2021/06/01 08:53:16;;;;;;;5.65;3.45;;;;;;;;;;4925599;29;20043;-58
2021/06/01 08:55:45;;;;;;;6.88;2.85;;;;;;;;;;4926692;29;20051;-58
2021/06/01 08:58:13;;;;;;;4.57;3.83;;;;;;;;;;4921764;29;20552;-58
2021/06/01 09:00:40;;;;;;;5.35;2.92;;;;;;;;;;4919579;29;20051;-57
2021/06/01 09:03:08;;;;;;;3.97;2.38;;;;;;;;;;4928822;29;20048;-58
2021/06/01 09:05:35;;;;;;;3.80;2.38;;;;;;;;;;4922284;29;20048;-57
2021/06/01 09:08:05;;;;;;;6.57;2.83;;;;;;;;;;4928533;29;20055;-58
2021/06/01 09:10:55;;;;;;;4.30;2.50;;;;;;;;;;4916852;29;20100;-58
2021/06/01 09:13:58;;;;;;;4.10;2.65;;;;;;;;;;4924377;29;20070;-58
2021/06/01 09:22:00;;;;;;;3.80;2.17;;;;;;;;;;4907454;29;20127;-58
2021/06/01 09:24:27;;;;;;;4.88;2.50;;;;;;;;;;4913497;29;20044;-58
2021/06/01 09:29:27;;;;;;;4.72;2.10;;;;;;;;;;4922745;29;20044;-58
2021/06/01 09:31:54;;;;;;;;;;;;;;;;;;4924116;29;20058;-58
2021/06/01 09:34:24;;;;;;;5.45;2.33;;;;;;;;;;4922233;29;19923;-56
2021/06/01 09:36:51;;;;;;;4.53;1.88;;;;;;;;;;4925884;29;20676;-55
2021/06/01 09:39:22;;;;;;;6.22;2.08;;;;;;;;;;4923620;29;20044;-57
2021/06/01 09:41:49;;;;;;;6.43;2.17;;;;;;;;;;4925920;29;20040;-57
2021/06/01 09:44:15;;;;;;;4.22;2.10;;;;;;;;;;4928018;29;20409;-58
2021/06/01 09:46:45;;;;;;;2.97;1.98;;;;;;;;;;4921918;29;20048;-58
2021/06/01 09:49:12;;;;;;;4.53;2.00;;;;;;;;;;4923634;29;20056;-58
2021/06/01 09:51:43;;;;;;;5.53;2.20;;;;;;;;;;4927619;29;20604;-57
2021/06/01 09:54:34;;;;;;;9.70;1.85;;;;;;;;;;4921807;29;20051;-58
2021/06/01 09:57:14;;;;;;;5.93;1.83;;;;;;;;;;4924009;29;20075;-57
2021/06/01 09:59:41;;;;;;;5.43;2.08;;;;;;;;;;4912118;29;20131;-58
2021/06/01 10:02:27;;;;;;;6.53;1.88;;;;;;;;;;4925572;29;20110;-57
2021/06/01 10:05:12;;;;;;;5.00;2.00;;;;;;;;;;4924822;29;20043;-57
2021/06/01 10:07:40;;;;;;;11.38;2.10;;;;;;;;;;4933402;29;20055;-57
2021/06/01 10:10:12;;;;;;;2.40;1.80;;;;;;;;;;4922119;29;20075;-58
2021/06/01 10:12:39;;;;;;;3.78;1.92;;;;;;;;;;4924154;29;20096;-57
2021/06/01 10:15:06;;;;;;;2.50;1.43;;;;;;;;;;4926781;29;20058;-58
2021/06/01 10:17:36;;;;;;;3.65;1.98;;;;;;;;;;4933338;29;20484;-58
2021/06/01 10:20:03;;;;;;;6.78;1.77;;;;;;;;;;4927014;29;20044;-58
2021/06/01 10:22:31;;;;;;;4.35;1.83;;;;;;;;;;4929166;29;20126;-57
2021/06/01 10:24:58;;;;;;;3.00;2.25;;;;;;;;;;4927171;29;20032;-58
2021/06/01 10:27:26;;;;;;;4.68;2.10;;;;;;;;;;4930180;29;20389;-58
2021/06/01 10:29:53;;;;;;;4.97;1.98;;;;;;;;;;4928817;29;20709;-58
2021/06/01 10:32:21;;;;;;;2.88;2.30;;;;;;;;;;4928377;29;20082;-57
2021/06/01 10:34:48;;;;;;;2.47;2.00;;;;;;;;;;4929558;29;20040;-58
2021/06/01 10:43:24;;;;;;;3.75;1.80;;;;;;;;;;4927901;29;20047;-57
2021/06/01 10:48:46;;;;;;;2.15;1.80;;;;;;;;;;4926850;29;20054;-57
2021/06/01 10:51:29;;;;;;;6.10;2.00;;;;;;;;;;4930155;29;20143;-58
2021/06/01 10:53:56;;;;;;;7.45;1.65;;;;;;;;;;4928626;29;20052;-56
2021/06/01 10:56:23;;;;;;;3.50;1.83;;;;;;;;;;4924348;29;20051;-58
2021/06/01 10:58:52;;;;;;;3.03;1.50;;;;;;;;;;4929173;29;20371;-58
2021/06/01 11:04:05;;;;;;;4.43;1.70;;;;;;;;;;4925050;29;20134;-56
2021/06/01 11:06:47;;;;;;;4.00;1.53;;;;;;;;;;4923074;29;20122;-58
2021/06/01 11:09:31;;;;;;;4.55;1.83;;;;;;;;;;4926388;29;20287;-59
2021/06/01 11:12:19;;;;;;;1.63;1.38;;;;;;;;;;4925419;29;20457;-58
2021/06/01 11:14:47;;;;;;;3.25;1.80;;;;;;;;;;4914423;29;20052;-57
2021/06/01 11:17:14;;;;;;;;;;;;;;;;;;4925305;29;20058;-57
2021/06/01 11:19:52;;;;;;;5.45;1.83;;;;;;;;;;4925099;29;20361;-58
2021/06/01 11:22:24;;;;;;;3.45;1.77;;;;;;;;;;4927016;29;20048;-57
2021/06/01 11:35:53;;;;;;;2.78;1.48;;;;;;;;;;4930356;29;20051;-58
2021/06/01 11:39:00;;;;;;;6.15;1.70;;;;;;;;;;4929080;29;20125;-58
2021/06/01 11:43:52;;;;;;;1.77;1.50;;;;;;;;;;4924797;29;20047;-58
2021/06/01 11:51:26;;;;;;;6.72;1.75;;;;;;;;;;4916785;29;20044;-58
2021/06/01 11:53:56;;;;;;;5.28;1.55;;;;;;;;;;4926104;29;20456;-54
2021/06/01 12:02:19;;;;;;;6.55;1.80;;;;;;;;;;4921605;29;20059;-58
2021/06/01 12:18:15;;;;;;;6.43;1.85;;;;;;;;;;4930999;29;20071;-58
2021/06/01 12:20:43;;;;;;;4.20;1.60;;;;;;;;;;4921526;29;20142;-58
2021/06/01 12:23:25;;;;;;;4.25;1.70;;;;;;;;;;4925952;29;20039;-56
2021/06/01 12:26:09;;;;;;;2.40;1.55;;;;;;;;;;4928466;29;20044;-59
2021/06/01 12:31:53;;;;;;;2.78;1.70;;;;;;;;;;4923071;29;20047;-56
2021/06/01 12:34:33;;;;;;;3.92;1.63;;;;;;;;;;4925558;29;20542;-56
2021/06/01 12:45:12;;;;;;;;;;;;;;;;;;4931798;29;20071;-57
2021/06/01 13:21:14;;;;;;;2.28;1.45;;;;;;;;;;4878891;29;20057;-56
2021/06/01 13:24:09;;;;;;;3.15;1.30;;;;;;;;;;4924208;29;20708;-58
2021/06/01 13:30:16;;;;;;;5.50;1.50;;;;;;;;;;4924702;29;20043;-57
2021/06/01 13:38:12;;;;;;;1.75;1.38;;;;;;;;;;4924093;29;20052;-56
2021/06/01 13:46:12;;;;;;;3.40;1.40;;;;;;;;;;4928951;29;20040;-57
2021/06/01 13:49:05;;;;;;;2.08;1.20;;;;;;;;;;4929147;29;20048;-57
2021/06/01 13:57:06;;;;;;;3.78;1.27;;;;;;;;;;4928818;29;20416;-58
2021/06/01 14:32:05;;;;;;;3.08;1.20;;;;;;;;;;4929138;29;19923;-56
2021/06/01 15:07:38;;;;;;;1.80;1.30;;;;;;;;;;4921249;29;20096;-57
2021/06/01 15:32:14;;;;;;;2.05;1.42;;;;;;;;;;4921067;29;20076;-57
2021/06/01 17:05:08;;;;;;;3.78;1.90;;;;;;;;;;4927445;29;20528;-58
2021/06/01 17:07:50;;;;;;;5.05;2.30;;;;;;;;;;4925256;29;20051;-57
2021/06/01 17:13:08;;;;;;;4.97;1.80;;;;;;;;;;4927038;29;20092;-58
2021/06/01 17:15:36;;;;;;;4.20;2.13;;;;;;;;;;4923561;29;20044;-57
2021/06/01 17:18:09;;;;;;;;;;;;;;;;;;4930214;29;20063;-56
2021/06/01 17:23:30;;;;;;;5.95;2.10;;;;;;;;;;4926202;29;20052;-58
2021/06/01 17:37:02;;;;;;;3.42;2.08;;;;;;;;;;4925803;29;20050;-58
2021/06/01 17:39:28;;;;;;;6.03;1.98;;;;;;;;;;4909201;29;20437;-58
2021/06/01 17:41:57;;;;;;;4.80;1.70;;;;;;;;;;4927202;29;20095;-58
2021/06/01 17:44:25;;;;;;;5.50;1.80;;;;;;;;;;4926530;29;20058;-57
2021/06/01 17:47:11;;;;;;;2.13;1.63;;;;;;;;;;4924727;29;20046;-57
2021/06/01 17:49:38;;;;;;;4.10;1.63;;;;;;;;;;4925521;29;20046;-58
2021/06/01 17:52:04;;;;;;;2.33;1.45;;;;;;;;;;4924108;29;20066;-58
2021/06/01 17:54:32;;;;;;;5.65;1.38;;;;;;;;;;4927008;29;20107;-57
2021/06/01 17:57:00;;;;;;;2.60;1.70;;;;;;;;;;4916229;29;20062;-58
2021/06/01 17:59:27;;;;;;;4.07;2.60;;;;;;;;;;4928817;29;20109;-58
2021/06/01 18:01:55;;;;;;;2.60;1.70;;;;;;;;;;4928671;29;20544;-56
2021/06/01 18:04:24;;;;;;;3.22;1.92;;;;;;;;;;4928721;29;20047;-58
2021/06/01 18:06:58;;;;;;;2.33;2.10;;;;;;;;;;4925170;29;20048;-57
2021/06/01 18:09:52;;;;;;;6.43;2.08;;;;;;;;;;4928805;29;20067;-58
2021/06/01 19:24:41;;;;;;;6.07;1.73;;;;;;;;;;4928726;29;20052;-58
2021/06/01 19:50:04;;;;;;;5.53;1.58;;;;;;;;;;4925493;29;20043;-58
2021/06/01 19:52:31;;;;;;;3.17;1.50;;;;;;;;;;4929154;29;20110;-55
2021/06/01 19:55:00;;;;;;;1.95;1.45;;;;;;;;;;4922702;29;20070;-56
2021/06/01 19:57:27;;;;;;;3.25;1.52;;;;;;;;;;4920705;29;20047;-58
2021/06/01 19:59:54;;;;;;;6.18;1.88;;;;;;;;;;4925492;29;20144;-58
2021/06/01 20:02:26;;;;;;;5.72;1.90;;;;;;;;;;4923528;29;20094;-57
2021/06/01 20:04:54;;;;;;;2.42;2.08;;;;;;;;;;4918869;29;20106;-57
2021/06/01 20:07:22;;;;;;;2.03;1.80;;;;;;;;;;4925834;29;20042;-57
2021/06/01 20:09:49;;;;;;;2.58;1.55;;;;;;;;;;4925441;29;20078;-56
2021/06/01 20:12:17;;;;;;;2.13;1.90;;;;;;;;;;4927356;29;20040;-57
2021/06/01 20:14:44;;;;;;;3.35;1.95;;;;;;;;;;4927994;29;20047;-57
2021/06/01 20:17:28;;;;;;;2.05;1.80;;;;;;;;;;4923761;29;20039;-56
2021/06/01 20:19:58;;;;;;;3.10;1.75;;;;;;;;;;4921610;29;20054;-53
2021/06/01 20:22:26;;;;;;;3.83;1.80;;;;;;;;;;4926972;29;20048;-57
2021/06/01 20:24:54;;;;;;;2.65;1.90;;;;;;;;;;4928121;29;20047;-56
2021/06/01 20:27:22;;;;;;;7.50;1.70;;;;;;;;;;4922438;29;20047;-58
2021/06/01 20:29:49;;;;;;;6.78;1.95;;;;;;;;;;4926879;29;20036;-59
2021/06/01 20:35:04;;;;;;;5.25;2.30;;;;;;;;;;4927366;29;20134;-58
2021/06/01 20:37:31;;;;;;;3.50;2.45;;;;;;;;;;4930190;29;20043;-58
2021/06/01 20:39:58;;;;;;;6.72;2.47;;;;;;;;;;4922958;29;20099;-57
2021/06/01 20:42:25;;;;;;;3.80;2.08;;;;;;;;;;4933210;28;20050;-58
2021/06/01 20:44:52;;;;;;;5.35;2.40;;;;;;;;;;4922600;29;20052;-58
2021/06/01 20:47:18;;;;;;;5.43;2.25;;;;;;;;;;4908269;29;21516;-58
2021/06/01 20:49:47;;;;;;;6.63;2.20;;;;;;;;;;4926959;28;20094;-56
2021/06/01 20:52:15;;;;;;;2.65;1.88;;;;;;;;;;4924953;29;20047;-58
2021/06/01 20:54:41;;;;;;;7.13;2.55;;;;;;;;;;4921144;29;20068;-57
2021/06/01 20:57:09;;;;;;;5.10;2.23;;;;;;;;;;4922204;29;20054;-57
2021/06/01 20:59:35;;;;;;;3.30;2.53;;;;;;;;;;4922087;29;20307;-57
2021/06/01 21:02:02;;;;;;;5.38;2.30;;;;;;;;;;4921753;29;20063;-57
2021/06/01 21:04:31;;;;;;;2.58;2.20;;;;;;;;;;4919972;29;20588;-57
2021/06/01 21:06:58;;;;;;;6.50;2.30;;;;;;;;;;4924254;29;20052;-57
2021/06/01 21:09:25;;;;;;;6.18;2.50;;;;;;;;;;4927218;29;20071;-57
2021/06/01 21:11:52;;;;;;;6.22;2.08;;;;;;;;;;4923699;29;20045;-57
2021/06/01 21:14:18;;;;;;;5.20;2.20;;;;;;;;;;4919978;29;20135;-58
2021/06/01 21:16:45;;;;;;;9.70;2.50;;;;;;;;;;4923332;29;20532;-58
2021/06/01 21:19:15;;;;;;;5.18;2.50;;;;;;;;;;4925469;29;20123;-58
2021/06/01 21:21:42;;;;;;;5.07;2.88;;;;;;;;;;4924306;29;20579;-56
2021/06/01 21:24:09;;;;;;;4.32;2.55;;;;;;;;;;4927763;29;20372;-58
2021/06/01 21:26:37;;;;;;;4.97;2.55;;;;;;;;;;4919533;29;20091;-58
2021/06/01 21:29:04;;;;;;;6.50;2.50;;;;;;;;;;4923558;29;20048;-56
2021/06/01 21:31:45;;;;;;;6.03;2.83;;;;;;;;;;4923419;29;20047;-58
2021/06/01 21:34:14;;;;;;;6.93;2.70;;;;;;;;;;4912469;29;20111;-58
2021/06/01 21:36:41;;;;;;;7.53;2.75;;;;;;;;;;4923890;29;20498;-58
2021/06/01 21:39:12;;;;;;;6.30;2.85;;;;;;;;;;4922593;29;20330;-58
2021/06/01 21:41:40;;;;;;;7.43;2.78;;;;;;;;;;4923240;29;20400;-59
2021/06/01 21:44:10;;;;;;;6.43;2.75;;;;;;;;;;4917227;29;20048;-58
2021/06/01 21:46:38;;;;;;;8.20;3.13;;;;;;;;;;4922292;29;20083;-59
2021/06/01 21:49:06;;;;;;;7.40;2.60;;;;;;;;;;4926871;29;20156;-57